sensor_id;sensor_type;location;lat;lon;timestamp;P1;durP1;ratioP1;P2;durP2;ratioP2
70946;SDS011;58605;48.700;8.760;2022-11-22T00:00:18;4.57;;;3.60;;
70946;SDS011;58605;48.700;8.760;2022-11-22T00:02:45;5.00;;;3.97;;
70946;SDS011;58605;48.700;8.760;2022-11-22T00:05:13;6.77;;;4.30;;
70946;SDS011;58605;48.700;8.760;2022-11-22T00:07:39;9.33;;;4.57;;
70946;SDS011;58605;48.700;8.760;2022-11-22T00:10:05;4.80;;;3.80;;
70946;SDS011;58605;48.700;8.760;2022-11-22T00:12:33;4.50;;;3.60;;
70946;SDS011;58605;48.700;8.760;2022-11-22T00:14:59;5.13;;;3.83;;
70946;SDS011;58605;48.700;8.760;2022-11-22T00:17:25;4.50;;;4.10;;
70946;SDS011;58605;48.700;8.760;2022-11-22T00:19:51;4.43;;;3.70;;
70946;SDS011;58605;48.700;8.760;2022-11-22T00:22:18;5.00;;;3.40;;
70946;SDS011;58605;48.700;8.760;2022-11-22T00:24:44;4.60;;;3.60;;
70946;SDS011;58605;48.700;8.760;2022-11-22T00:27:10;3.63;;;3.33;;
70946;SDS011;58605;48.700;8.760;2022-11-22T00:29:36;11.30;;;4.50;;
70946;SDS011;58605;48.700;8.760;2022-11-22T00:32:02;21.53;;;5.30;;
70946;SDS011;58605;48.700;8.760;2022-11-22T00:34:29;6.27;;;4.00;;
70946;SDS011;58605;48.700;8.760;2022-11-22T00:36:55;5.73;;;3.70;;
70946;SDS011;58605;48.700;8.760;2022-11-22T00:39:28;6.30;;;3.90;;
70946;SDS011;58605;48.700;8.760;2022-11-22T00:41:54;6.07;;;3.83;;
70946;SDS011;58605;48.700;8.760;2022-11-22T00:44:20;4.27;;;3.27;;
70946;SDS011;58605;48.700;8.760;2022-11-22T00:46:46;3.60;;;3.00;;
70946;SDS011;58605;48.700;8.760;2022-11-22T00:49:12;6.57;;;3.53;;
70946;SDS011;58605;48.700;8.760;2022-11-22T00:51:38;3.90;;;3.40;;
70946;SDS011;58605;48.700;8.760;2022-11-22T00:54:04;6.90;;;3.90;;
70946;SDS011;58605;48.700;8.760;2022-11-22T00:56:32;4.33;;;3.80;;
70946;SDS011;58605;48.700;8.760;2022-11-22T00:58:58;5.37;;;3.90;;
70946;SDS011;58605;48.700;8.760;2022-11-22T01:01:24;6.67;;;3.70;;
70946;SDS011;58605;48.700;8.760;2022-11-22T01:03:50;5.47;;;3.33;;
70946;SDS011;58605;48.700;8.760;2022-11-22T01:06:16;6.17;;;3.70;;
70946;SDS011;58605;48.700;8.760;2022-11-22T01:08:42;4.27;;;3.30;;
70946;SDS011;58605;48.700;8.760;2022-11-22T01:11:08;4.97;;;3.10;;
70946;SDS011;58605;48.700;8.760;2022-11-22T01:13:36;3.50;;;3.13;;
70946;SDS011;58605;48.700;8.760;2022-11-22T01:16:03;7.13;;;3.73;;
70946;SDS011;58605;48.700;8.760;2022-11-22T01:18:31;5.27;;;3.00;;
70946;SDS011;58605;48.700;8.760;2022-11-22T01:20:58;4.10;;;2.97;;
70946;SDS011;58605;48.700;8.760;2022-11-22T01:23:24;4.30;;;3.77;;
70946;SDS011;58605;48.700;8.760;2022-11-22T01:25:50;7.20;;;3.60;;
70946;SDS011;58605;48.700;8.760;2022-11-22T01:28:16;6.97;;;3.67;;
70946;SDS011;58605;48.700;8.760;2022-11-22T01:30:44;4.20;;;3.43;;
70946;SDS011;58605;48.700;8.760;2022-11-22T01:33:10;3.87;;;3.47;;
70946;SDS011;58605;48.700;8.760;2022-11-22T01:35:36;5.03;;;3.90;;
70946;SDS011;58605;48.700;8.760;2022-11-22T01:38:02;4.57;;;3.93;;
70946;SDS011;58605;48.700;8.760;2022-11-22T01:40:28;6.60;;;3.73;;
70946;SDS011;58605;48.700;8.760;2022-11-22T01:42:55;4.37;;;3.27;;
70946;SDS011;58605;48.700;8.760;2022-11-22T01:45:35;3.63;;;3.03;;
70946;SDS011;58605;48.700;8.760;2022-11-22T01:48:15;6.53;;;3.60;;
70946;SDS011;58605;48.700;8.760;2022-11-22T01:50:45;4.20;;;3.20;;
70946;SDS011;58605;48.700;8.760;2022-11-22T01:53:15;3.97;;;3.43;;
70946;SDS011;58605;48.700;8.760;2022-11-22T01:55:44;3.93;;;3.03;;
70946;SDS011;58605;48.700;8.760;2022-11-22T01:58:10;4.03;;;2.90;;
70946;SDS011;58605;48.700;8.760;2022-11-22T02:00:38;5.90;;;3.30;;
70946;SDS011;58605;48.700;8.760;2022-11-22T02:03:05;5.97;;;3.20;;
70946;SDS011;58605;48.700;8.760;2022-11-22T02:05:35;4.07;;;3.20;;
70946;SDS011;58605;48.700;8.760;2022-11-22T02:08:02;3.57;;;2.63;;
70946;SDS011;58605;48.700;8.760;2022-11-22T02:10:33;5.67;;;3.57;;
70946;SDS011;58605;48.700;8.760;2022-11-22T02:13:01;3.60;;;3.30;;
70946;SDS011;58605;48.700;8.760;2022-11-22T02:15:28;4.23;;;3.40;;
70946;SDS011;58605;48.700;8.760;2022-11-22T02:17:55;3.40;;;3.10;;
70946;SDS011;58605;48.700;8.760;2022-11-22T02:20:21;3.53;;;3.07;;
70946;SDS011;58605;48.700;8.760;2022-11-22T02:22:50;5.03;;;3.77;;
70946;SDS011;58605;48.700;8.760;2022-11-22T02:25:21;4.43;;;4.03;;
70946;SDS011;58605;48.700;8.760;2022-11-22T02:27:55;4.10;;;3.70;;
70946;SDS011;58605;48.700;8.760;2022-11-22T02:30:22;5.53;;;3.87;;
70946;SDS011;58605;48.700;8.760;2022-11-22T02:32:48;9.80;;;4.93;;
70946;SDS011;58605;48.700;8.760;2022-11-22T02:35:15;73.40;;;7.97;;
70946;SDS011;58605;48.700;8.760;2022-11-22T02:37:53;36.13;;;6.77;;
70946;SDS011;58605;48.700;8.760;2022-11-22T02:40:23;4.30;;;3.70;;
70946;SDS011;58605;48.700;8.760;2022-11-22T02:42:51;4.10;;;3.00;;
70946;SDS011;58605;48.700;8.760;2022-11-22T02:45:22;5.03;;;3.40;;
70946;SDS011;58605;48.700;8.760;2022-11-22T02:47:48;8.27;;;3.60;;
70946;SDS011;58605;48.700;8.760;2022-11-22T02:50:14;33.50;;;5.77;;
70946;SDS011;58605;48.700;8.760;2022-11-22T02:52:40;5.23;;;3.40;;
70946;SDS011;58605;48.700;8.760;2022-11-22T02:55:06;5.70;;;3.27;;
70946;SDS011;58605;48.700;8.760;2022-11-22T02:57:33;3.80;;;3.17;;
70946;SDS011;58605;48.700;8.760;2022-11-22T02:59:59;4.97;;;3.17;;
70946;SDS011;58605;48.700;8.760;2022-11-22T03:02:26;4.43;;;3.03;;
70946;SDS011;58605;48.700;8.760;2022-11-22T03:04:52;4.73;;;3.57;;
70946;SDS011;58605;48.700;8.760;2022-11-22T03:07:20;6.27;;;2.93;;
70946;SDS011;58605;48.700;8.760;2022-11-22T03:09:46;6.30;;;2.93;;
70946;SDS011;58605;48.700;8.760;2022-11-22T03:12:12;5.83;;;2.70;;
70946;SDS011;58605;48.700;8.760;2022-11-22T03:14:38;2.73;;;2.50;;
70946;SDS011;58605;48.700;8.760;2022-11-22T03:17:04;3.83;;;2.83;;
70946;SDS011;58605;48.700;8.760;2022-11-22T03:19:32;5.07;;;3.10;;
70946;SDS011;58605;48.700;8.760;2022-11-22T03:21:58;3.60;;;2.73;;
70946;SDS011;58605;48.700;8.760;2022-11-22T03:24:24;2.97;;;2.50;;
70946;SDS011;58605;48.700;8.760;2022-11-22T03:26:50;4.17;;;2.50;;
70946;SDS011;58605;48.700;8.760;2022-11-22T03:29:16;3.23;;;2.83;;
70946;SDS011;58605;48.700;8.760;2022-11-22T03:31:42;4.73;;;2.37;;
70946;SDS011;58605;48.700;8.760;2022-11-22T03:34:09;3.17;;;2.43;;
70946;SDS011;58605;48.700;8.760;2022-11-22T03:36:37;4.10;;;2.60;;
70946;SDS011;58605;48.700;8.760;2022-11-22T03:39:03;5.43;;;2.60;;
70946;SDS011;58605;48.700;8.760;2022-11-22T03:41:29;6.20;;;2.83;;
70946;SDS011;58605;48.700;8.760;2022-11-22T03:43:55;90.73;;;7.60;;
70946;SDS011;58605;48.700;8.760;2022-11-22T03:46:21;13.73;;;3.87;;
70946;SDS011;58605;48.700;8.760;2022-11-22T03:48:48;17.17;;;4.10;;
70946;SDS011;58605;48.700;8.760;2022-11-22T03:51:14;4.63;;;3.20;;
70946;SDS011;58605;48.700;8.760;2022-11-22T03:53:41;3.77;;;2.93;;
70946;SDS011;58605;48.700;8.760;2022-11-22T03:56:08;4.10;;;2.83;;
70946;SDS011;58605;48.700;8.760;2022-11-22T03:58:34;7.27;;;3.17;;
70946;SDS011;58605;48.700;8.760;2022-11-22T04:01:00;38.13;;;5.10;;
70946;SDS011;58605;48.700;8.760;2022-11-22T04:03:26;68.80;;;6.47;;
70946;SDS011;58605;48.700;8.760;2022-11-22T04:05:52;49.80;;;4.93;;
70946;SDS011;58605;48.700;8.760;2022-11-22T04:08:18;69.10;;;6.47;;
70946;SDS011;58605;48.700;8.760;2022-11-22T04:10:46;108.93;;;8.30;;
70946;SDS011;58605;48.700;8.760;2022-11-22T04:13:13;68.23;;;6.23;;
70946;SDS011;58605;48.700;8.760;2022-11-22T04:15:39;25.00;;;4.10;;
70946;SDS011;58605;48.700;8.760;2022-11-22T04:18:07;5.47;;;3.40;;
70946;SDS011;58605;48.700;8.760;2022-11-22T04:20:33;4.43;;;3.40;;
70946;SDS011;58605;48.700;8.760;2022-11-22T04:23:18;9.90;;;3.50;;
70946;SDS011;58605;48.700;8.760;2022-11-22T04:25:47;5.03;;;3.23;;
70946;SDS011;58605;48.700;8.760;2022-11-22T04:28:15;22.37;;;4.53;;
70946;SDS011;58605;48.700;8.760;2022-11-22T04:30:42;59.30;;;5.73;;
70946;SDS011;58605;48.700;8.760;2022-11-22T04:33:27;8.13;;;3.57;;
70946;SDS011;58605;48.700;8.760;2022-11-22T04:35:54;8.60;;;4.10;;
70946;SDS011;58605;48.700;8.760;2022-11-22T04:38:20;8.27;;;3.50;;
70946;SDS011;58605;48.700;8.760;2022-11-22T04:40:48;135.83;;;10.73;;
70946;SDS011;58605;48.700;8.760;2022-11-22T04:43:15;137.43;;;11.40;;
70946;SDS011;58605;48.700;8.760;2022-11-22T04:46:02;90.67;;;8.57;;
70946;SDS011;58605;48.700;8.760;2022-11-22T04:48:28;73.60;;;6.70;;
70946;SDS011;58605;48.700;8.760;2022-11-22T04:50:54;150.83;;;10.00;;
70946;SDS011;58605;48.700;8.760;2022-11-22T04:53:39;104.20;;;7.87;;
70946;SDS011;58605;48.700;8.760;2022-11-22T04:56:06;66.97;;;6.13;;
70946;SDS011;58605;48.700;8.760;2022-11-22T04:58:32;73.07;;;5.83;;
70946;SDS011;58605;48.700;8.760;2022-11-22T05:00:58;34.50;;;4.47;;
70946;SDS011;58605;48.700;8.760;2022-11-22T05:03:24;87.47;;;6.53;;
70946;SDS011;58605;48.700;8.760;2022-11-22T05:05:59;39.90;;;5.17;;
70946;SDS011;58605;48.700;8.760;2022-11-22T05:08:26;37.70;;;6.23;;
70946;SDS011;58605;48.700;8.760;2022-11-22T05:10:53;5.10;;;3.47;;
70946;SDS011;58605;48.700;8.760;2022-11-22T05:13:23;7.87;;;3.33;;
70946;SDS011;58605;48.700;8.760;2022-11-22T05:15:51;5.73;;;3.70;;
70946;SDS011;58605;48.700;8.760;2022-11-22T05:18:18;4.47;;;2.70;;
70946;SDS011;58605;48.700;8.760;2022-11-22T05:20:44;5.93;;;3.30;;
70946;SDS011;58605;48.700;8.760;2022-11-22T05:23:10;6.30;;;2.93;;
70946;SDS011;58605;48.700;8.760;2022-11-22T05:25:56;4.53;;;3.17;;
70946;SDS011;58605;48.700;8.760;2022-11-22T05:28:25;3.03;;;2.50;;
70946;SDS011;58605;48.700;8.760;2022-11-22T05:30:52;5.00;;;2.70;;
70946;SDS011;58605;48.700;8.760;2022-11-22T05:33:19;4.27;;;2.57;;
70946;SDS011;58605;48.700;8.760;2022-11-22T05:35:45;4.47;;;2.20;;
70946;SDS011;58605;48.700;8.760;2022-11-22T05:38:11;5.07;;;2.63;;
70946;SDS011;58605;48.700;8.760;2022-11-22T05:40:37;4.77;;;2.83;;
70946;SDS011;58605;48.700;8.760;2022-11-22T05:43:03;9.17;;;3.07;;
70946;SDS011;58605;48.700;8.760;2022-11-22T05:45:31;7.97;;;3.07;;
70946;SDS011;58605;48.700;8.760;2022-11-22T05:47:58;4.43;;;2.13;;
70946;SDS011;58605;48.700;8.760;2022-11-22T05:50:24;10.10;;;2.77;;
70946;SDS011;58605;48.700;8.760;2022-11-22T05:52:50;4.37;;;2.30;;
70946;SDS011;58605;48.700;8.760;2022-11-22T05:55:16;11.10;;;2.73;;
70946;SDS011;58605;48.700;8.760;2022-11-22T05:57:42;4.27;;;2.23;;
70946;SDS011;58605;48.700;8.760;2022-11-22T06:00:09;5.83;;;2.57;;
70946;SDS011;58605;48.700;8.760;2022-11-22T06:02:37;4.20;;;2.27;;
70946;SDS011;58605;48.700;8.760;2022-11-22T06:05:03;12.83;;;3.00;;
70946;SDS011;58605;48.700;8.760;2022-11-22T06:07:29;19.77;;;3.10;;
70946;SDS011;58605;48.700;8.760;2022-11-22T06:09:55;11.57;;;2.57;;
70946;SDS011;58605;48.700;8.760;2022-11-22T06:12:21;4.80;;;2.60;;
70946;SDS011;58605;48.700;8.760;2022-11-22T06:14:47;4.87;;;3.10;;
70946;SDS011;58605;48.700;8.760;2022-11-22T06:17:13;10.30;;;2.63;;
70946;SDS011;58605;48.700;8.760;2022-11-22T06:19:41;6.23;;;2.33;;
70946;SDS011;58605;48.700;8.760;2022-11-22T06:22:07;6.57;;;2.67;;
70946;SDS011;58605;48.700;8.760;2022-11-22T06:24:34;7.83;;;2.70;;
70946;SDS011;58605;48.700;8.760;2022-11-22T06:27:00;6.23;;;2.23;;
70946;SDS011;58605;48.700;8.760;2022-11-22T06:29:26;6.40;;;2.37;;
70946;SDS011;58605;48.700;8.760;2022-11-22T06:31:53;7.50;;;2.80;;
70946;SDS011;58605;48.700;8.760;2022-11-22T06:34:19;6.13;;;2.93;;
70946;SDS011;58605;48.700;8.760;2022-11-22T06:36:46;8.63;;;4.40;;
70946;SDS011;58605;48.700;8.760;2022-11-22T06:39:12;5.27;;;2.77;;
70946;SDS011;58605;48.700;8.760;2022-11-22T06:41:38;13.40;;;4.90;;
70946;SDS011;58605;48.700;8.760;2022-11-22T06:44:05;9.93;;;4.70;;
70946;SDS011;58605;48.700;8.760;2022-11-22T06:46:32;9.60;;;3.90;;
70946;SDS011;58605;48.700;8.760;2022-11-22T06:48:59;13.27;;;4.10;;
70946;SDS011;58605;48.700;8.760;2022-11-22T06:51:25;6.80;;;4.03;;
70946;SDS011;58605;48.700;8.760;2022-11-22T06:53:54;11.23;;;3.20;;
70946;SDS011;58605;48.700;8.760;2022-11-22T06:56:22;9.10;;;3.20;;
70946;SDS011;58605;48.700;8.760;2022-11-22T06:58:50;27.93;;;4.23;;
70946;SDS011;58605;48.700;8.760;2022-11-22T07:01:17;65.40;;;6.30;;
70946;SDS011;58605;48.700;8.760;2022-11-22T07:03:44;23.23;;;3.67;;
70946;SDS011;58605;48.700;8.760;2022-11-22T07:06:11;45.03;;;4.23;;
70946;SDS011;58605;48.700;8.760;2022-11-22T07:08:39;191.37;;;11.93;;
70946;SDS011;58605;48.700;8.760;2022-11-22T07:11:07;148.53;;;9.67;;
70946;SDS011;58605;48.700;8.760;2022-11-22T07:13:35;117.77;;;7.80;;
70946;SDS011;58605;48.700;8.760;2022-11-22T07:16:02;149.13;;;10.83;;
70946;SDS011;58605;48.700;8.760;2022-11-22T07:18:30;126.57;;;8.47;;
70946;SDS011;58605;48.700;8.760;2022-11-22T07:20:58;87.67;;;6.87;;
70946;SDS011;58605;48.700;8.760;2022-11-22T07:23:26;5.30;;;3.10;;
70946;SDS011;58605;48.700;8.760;2022-11-22T07:25:52;6.03;;;2.60;;
70946;SDS011;58605;48.700;8.760;2022-11-22T07:28:19;7.97;;;3.03;;
70946;SDS011;58605;48.700;8.760;2022-11-22T07:30:46;8.37;;;3.00;;
70946;SDS011;58605;48.700;8.760;2022-11-22T07:33:12;4.50;;;2.73;;
70946;SDS011;58605;48.700;8.760;2022-11-22T07:35:38;6.80;;;2.87;;
70946;SDS011;58605;48.700;8.760;2022-11-22T07:38:04;5.30;;;2.90;;
70946;SDS011;58605;48.700;8.760;2022-11-22T07:40:30;6.23;;;2.70;;
70946;SDS011;58605;48.700;8.760;2022-11-22T07:42:56;4.97;;;2.80;;
70946;SDS011;58605;48.700;8.760;2022-11-22T07:45:24;6.67;;;3.03;;
70946;SDS011;58605;48.700;8.760;2022-11-22T07:47:50;6.67;;;2.77;;
70946;SDS011;58605;48.700;8.760;2022-11-22T07:50:16;7.50;;;3.07;;
70946;SDS011;58605;48.700;8.760;2022-11-22T07:52:42;6.80;;;2.60;;
70946;SDS011;58605;48.700;8.760;2022-11-22T07:55:08;6.00;;;3.00;;
70946;SDS011;58605;48.700;8.760;2022-11-22T07:57:35;117.10;;;9.17;;
70946;SDS011;58605;48.700;8.760;2022-11-22T08:00:02;83.07;;;6.33;;
70946;SDS011;58605;48.700;8.760;2022-11-22T08:02:30;4.90;;;2.97;;
70946;SDS011;58605;48.700;8.760;2022-11-22T08:04:56;6.97;;;2.80;;
70946;SDS011;58605;48.700;8.760;2022-11-22T08:07:22;4.60;;;2.53;;
70946;SDS011;58605;48.700;8.760;2022-11-22T08:09:48;5.47;;;2.53;;
70946;SDS011;58605;48.700;8.760;2022-11-22T08:12:14;4.37;;;2.40;;
70946;SDS011;58605;48.700;8.760;2022-11-22T08:14:40;6.63;;;2.87;;
70946;SDS011;58605;48.700;8.760;2022-11-22T08:17:06;4.93;;;2.43;;
70946;SDS011;58605;48.700;8.760;2022-11-22T08:19:35;6.53;;;2.60;;
70946;SDS011;58605;48.700;8.760;2022-11-22T08:22:01;5.33;;;2.67;;
70946;SDS011;58605;48.700;8.760;2022-11-22T08:24:27;4.20;;;2.70;;
70946;SDS011;58605;48.700;8.760;2022-11-22T08:26:53;5.87;;;2.90;;
70946;SDS011;58605;48.700;8.760;2022-11-22T08:29:19;6.00;;;3.00;;
70946;SDS011;58605;48.700;8.760;2022-11-22T08:31:45;6.50;;;2.90;;
70946;SDS011;58605;48.700;8.760;2022-11-22T08:34:11;4.87;;;2.90;;
70946;SDS011;58605;48.700;8.760;2022-11-22T08:36:39;10.70;;;3.10;;
70946;SDS011;58605;48.700;8.760;2022-11-22T08:39:05;23.53;;;3.77;;
70946;SDS011;58605;48.700;8.760;2022-11-22T08:41:31;6.23;;;3.20;;
70946;SDS011;58605;48.700;8.760;2022-11-22T08:43:57;4.33;;;2.63;;
70946;SDS011;58605;48.700;8.760;2022-11-22T08:46:23;7.27;;;2.63;;
70946;SDS011;58605;48.700;8.760;2022-11-22T08:48:50;4.87;;;2.63;;
70946;SDS011;58605;48.700;8.760;2022-11-22T08:51:18;3.33;;;2.40;;
70946;SDS011;58605;48.700;8.760;2022-11-22T08:53:45;5.00;;;2.80;;
70946;SDS011;58605;48.700;8.760;2022-11-22T08:56:12;3.87;;;3.17;;
70946;SDS011;58605;48.700;8.760;2022-11-22T08:58:39;5.43;;;2.50;;
70946;SDS011;58605;48.700;8.760;2022-11-22T09:01:06;5.90;;;2.90;;
70946;SDS011;58605;48.700;8.760;2022-11-22T09:03:34;6.37;;;2.73;;
70946;SDS011;58605;48.700;8.760;2022-11-22T09:06:00;6.70;;;2.67;;
70946;SDS011;58605;48.700;8.760;2022-11-22T09:08:27;4.13;;;2.47;;
70946;SDS011;58605;48.700;8.760;2022-11-22T09:10:54;5.80;;;2.37;;
70946;SDS011;58605;48.700;8.760;2022-11-22T09:13:23;5.70;;;2.90;;
70946;SDS011;58605;48.700;8.760;2022-11-22T09:15:50;6.40;;;3.13;;
70946;SDS011;58605;48.700;8.760;2022-11-22T09:18:16;5.60;;;2.47;;
70946;SDS011;58605;48.700;8.760;2022-11-22T09:20:42;7.60;;;3.00;;
70946;SDS011;58605;48.700;8.760;2022-11-22T09:23:08;6.37;;;2.53;;
70946;SDS011;58605;48.700;8.760;2022-11-22T09:25:34;6.07;;;2.73;;
70946;SDS011;58605;48.700;8.760;2022-11-22T09:28:01;7.07;;;3.00;;
70946;SDS011;58605;48.700;8.760;2022-11-22T09:30:27;6.27;;;2.20;;
70946;SDS011;58605;48.700;8.760;2022-11-22T09:32:53;7.07;;;2.33;;
70946;SDS011;58605;48.700;8.760;2022-11-22T09:35:19;5.20;;;2.50;;
70946;SDS011;58605;48.700;8.760;2022-11-22T09:37:45;5.03;;;2.40;;
70946;SDS011;58605;48.700;8.760;2022-11-22T09:40:12;4.87;;;2.90;;
70946;SDS011;58605;48.700;8.760;2022-11-22T09:42:52;4.57;;;2.53;;
70946;SDS011;58605;48.700;8.760;2022-11-22T09:45:44;8.57;;;2.90;;
70946;SDS011;58605;48.700;8.760;2022-11-22T09:48:27;5.43;;;2.57;;
70946;SDS011;58605;48.700;8.760;2022-11-22T09:51:05;4.87;;;2.67;;
70946;SDS011;58605;48.700;8.760;2022-11-22T09:53:35;5.43;;;2.40;;
70946;SDS011;58605;48.700;8.760;2022-11-22T09:56:07;3.57;;;2.30;;
70946;SDS011;58605;48.700;8.760;2022-11-22T09:58:38;6.33;;;2.57;;
70946;SDS011;58605;48.700;8.760;2022-11-22T10:01:09;3.97;;;2.50;;
70946;SDS011;58605;48.700;8.760;2022-11-22T10:03:41;5.17;;;2.20;;
70946;SDS011;58605;48.700;8.760;2022-11-22T10:06:12;4.00;;;2.07;;
70946;SDS011;58605;48.700;8.760;2022-11-22T10:08:43;3.53;;;2.00;;
70946;SDS011;58605;48.700;8.760;2022-11-22T10:11:18;4.33;;;2.20;;
70946;SDS011;58605;48.700;8.760;2022-11-22T10:13:51;5.50;;;2.50;;
70946;SDS011;58605;48.700;8.760;2022-11-22T10:16:24;4.73;;;2.43;;
70946;SDS011;58605;48.700;8.760;2022-11-22T10:18:55;4.00;;;2.20;;
70946;SDS011;58605;48.700;8.760;2022-11-22T10:21:25;6.23;;;2.50;;
70946;SDS011;58605;48.700;8.760;2022-11-22T10:23:51;7.23;;;2.40;;
70946;SDS011;58605;48.700;8.760;2022-11-22T10:26:19;8.27;;;2.53;;
70946;SDS011;58605;48.700;8.760;2022-11-22T10:28:52;7.27;;;2.70;;
70946;SDS011;58605;48.700;8.760;2022-11-22T10:31:29;7.73;;;2.50;;
70946;SDS011;58605;48.700;8.760;2022-11-22T10:34:04;5.27;;;1.97;;
70946;SDS011;58605;48.700;8.760;2022-11-22T10:36:41;5.80;;;2.83;;
70946;SDS011;58605;48.700;8.760;2022-11-22T10:39:18;3.23;;;1.87;;
70946;SDS011;58605;48.700;8.760;2022-11-22T10:41:57;7.93;;;2.07;;
70946;SDS011;58605;48.700;8.760;2022-11-22T10:44:49;4.23;;;2.00;;
70946;SDS011;58605;48.700;8.760;2022-11-22T10:47:22;5.73;;;2.30;;
70946;SDS011;58605;48.700;8.760;2022-11-22T10:50:09;7.67;;;2.60;;
70946;SDS011;58605;48.700;8.760;2022-11-22T10:52:43;6.57;;;2.20;;
70946;SDS011;58605;48.700;8.760;2022-11-22T10:55:21;6.20;;;2.23;;
70946;SDS011;58605;48.700;8.760;2022-11-22T10:58:01;3.37;;;2.13;;
70946;SDS011;58605;48.700;8.760;2022-11-22T11:00:34;7.57;;;2.73;;
70946;SDS011;58605;48.700;8.760;2022-11-22T11:03:07;7.20;;;2.30;;
70946;SDS011;58605;48.700;8.760;2022-11-22T11:05:42;6.73;;;2.10;;
70946;SDS011;58605;48.700;8.760;2022-11-22T11:08:12;4.97;;;2.30;;
70946;SDS011;58605;48.700;8.760;2022-11-22T11:10:45;6.53;;;2.20;;
70946;SDS011;58605;48.700;8.760;2022-11-22T11:13:16;4.93;;;2.50;;
70946;SDS011;58605;48.700;8.760;2022-11-22T11:15:49;6.27;;;2.90;;
70946;SDS011;58605;48.700;8.760;2022-11-22T11:18:18;4.57;;;2.10;;
70946;SDS011;58605;48.700;8.760;2022-11-22T11:20:56;7.87;;;2.33;;
70946;SDS011;58605;48.700;8.760;2022-11-22T11:23:22;3.87;;;2.40;;
70946;SDS011;58605;48.700;8.760;2022-11-22T11:25:48;4.83;;;2.50;;
70946;SDS011;58605;48.700;8.760;2022-11-22T11:28:17;5.80;;;2.30;;
70946;SDS011;58605;48.700;8.760;2022-11-22T11:30:45;6.90;;;2.53;;
70946;SDS011;58605;48.700;8.760;2022-11-22T11:33:18;4.03;;;2.30;;
70946;SDS011;58605;48.700;8.760;2022-11-22T11:35:47;7.23;;;2.23;;
70946;SDS011;58605;48.700;8.760;2022-11-22T11:38:28;6.70;;;2.97;;
70946;SDS011;58605;48.700;8.760;2022-11-22T11:40:56;4.70;;;2.07;;
70946;SDS011;58605;48.700;8.760;2022-11-22T11:43:23;5.03;;;2.47;;
70946;SDS011;58605;48.700;8.760;2022-11-22T11:45:50;4.80;;;2.10;;
70946;SDS011;58605;48.700;8.760;2022-11-22T11:48:27;8.63;;;2.40;;
70946;SDS011;58605;48.700;8.760;2022-11-22T11:51:07;7.93;;;2.20;;
70946;SDS011;58605;48.700;8.760;2022-11-22T11:53:38;5.60;;;2.10;;
70946;SDS011;58605;48.700;8.760;2022-11-22T11:56:20;8.47;;;2.33;;
70946;SDS011;58605;48.700;8.760;2022-11-22T11:59:05;8.07;;;2.27;;
70946;SDS011;58605;48.700;8.760;2022-11-22T12:01:35;6.60;;;2.17;;
70946;SDS011;58605;48.700;8.760;2022-11-22T12:04:05;7.17;;;2.63;;
70946;SDS011;58605;48.700;8.760;2022-11-22T12:06:40;6.80;;;2.53;;
70946;SDS011;58605;48.700;8.760;2022-11-22T12:09:07;8.83;;;2.37;;
70946;SDS011;58605;48.700;8.760;2022-11-22T12:11:51;6.07;;;2.17;;
70946;SDS011;58605;48.700;8.760;2022-11-22T12:14:18;5.10;;;2.23;;
70946;SDS011;58605;48.700;8.760;2022-11-22T12:16:51;4.37;;;2.40;;
70946;SDS011;58605;48.700;8.760;2022-11-22T12:19:26;4.40;;;2.17;;
70946;SDS011;58605;48.700;8.760;2022-11-22T12:21:57;3.53;;;2.13;;
70946;SDS011;58605;48.700;8.760;2022-11-22T12:24:29;6.83;;;2.13;;
70946;SDS011;58605;48.700;8.760;2022-11-22T12:27:01;3.33;;;2.17;;
70946;SDS011;58605;48.700;8.760;2022-11-22T12:29:28;4.93;;;1.77;;
70946;SDS011;58605;48.700;8.760;2022-11-22T12:31:57;3.60;;;2.10;;
70946;SDS011;58605;48.700;8.760;2022-11-22T12:34:30;9.83;;;2.10;;
70946;SDS011;58605;48.700;8.760;2022-11-22T12:37:00;4.33;;;1.70;;
70946;SDS011;58605;48.700;8.760;2022-11-22T12:39:30;3.50;;;2.10;;
70946;SDS011;58605;48.700;8.760;2022-11-22T12:42:01;2.47;;;1.83;;
70946;SDS011;58605;48.700;8.760;2022-11-22T12:44:33;2.40;;;2.00;;
70946;SDS011;58605;48.700;8.760;2022-11-22T12:47:04;1.83;;;1.67;;
70946;SDS011;58605;48.700;8.760;2022-11-22T12:49:38;2.37;;;1.60;;
70946;SDS011;58605;48.700;8.760;2022-11-22T12:52:08;3.27;;;1.93;;
70946;SDS011;58605;48.700;8.760;2022-11-22T12:54:43;3.37;;;1.80;;
70946;SDS011;58605;48.700;8.760;2022-11-22T12:57:16;2.00;;;1.80;;
70946;SDS011;58605;48.700;8.760;2022-11-22T12:59:48;2.23;;;1.60;;
70946;SDS011;58605;48.700;8.760;2022-11-22T13:02:24;3.13;;;1.70;;
70946;SDS011;58605;48.700;8.760;2022-11-22T13:04:58;1.83;;;1.60;;
70946;SDS011;58605;48.700;8.760;2022-11-22T13:07:32;3.30;;;1.90;;
70946;SDS011;58605;48.700;8.760;2022-11-22T13:10:13;3.40;;;2.23;;
70946;SDS011;58605;48.700;8.760;2022-11-22T13:12:46;3.80;;;1.50;;
70946;SDS011;58605;48.700;8.760;2022-11-22T13:15:14;3.10;;;1.90;;
70946;SDS011;58605;48.700;8.760;2022-11-22T13:17:49;3.77;;;1.70;;
70946;SDS011;58605;48.700;8.760;2022-11-22T13:20:21;1.83;;;1.37;;
70946;SDS011;58605;48.700;8.760;2022-11-22T13:22:51;2.37;;;1.63;;
70946;SDS011;58605;48.700;8.760;2022-11-22T13:25:45;2.77;;;1.50;;
70946;SDS011;58605;48.700;8.760;2022-11-22T13:28:18;1.70;;;1.60;;
70946;SDS011;58605;48.700;8.760;2022-11-22T13:31:03;1.63;;;1.53;;
70946;SDS011;58605;48.700;8.760;2022-11-22T13:33:32;3.37;;;1.57;;
70946;SDS011;58605;48.700;8.760;2022-11-22T13:38:58;2.67;;;1.80;;
70946;SDS011;58605;48.700;8.760;2022-11-22T13:41:27;3.07;;;1.80;;
70946;SDS011;58605;48.700;8.760;2022-11-22T13:44:14;3.13;;;1.70;;
70946;SDS011;58605;48.700;8.760;2022-11-22T13:46:50;1.60;;;1.50;;
70946;SDS011;58605;48.700;8.760;2022-11-22T13:49:32;2.37;;;1.40;;
70946;SDS011;58605;48.700;8.760;2022-11-22T13:52:04;2.20;;;1.60;;
70946;SDS011;58605;48.700;8.760;2022-11-22T13:54:58;4.30;;;2.20;;
70946;SDS011;58605;48.700;8.760;2022-11-22T13:57:39;3.67;;;1.90;;
70946;SDS011;58605;48.700;8.760;2022-11-22T14:06:14;1.63;;;1.50;;
70946;SDS011;58605;48.700;8.760;2022-11-22T14:12:03;2.47;;;1.83;;
70946;SDS011;58605;48.700;8.760;2022-11-22T14:14:49;3.20;;;2.10;;
70946;SDS011;58605;48.700;8.760;2022-11-22T14:17:31;3.13;;;1.50;;
70946;SDS011;58605;48.700;8.760;2022-11-22T14:20:07;3.10;;;1.87;;
70946;SDS011;58605;48.700;8.760;2022-11-22T14:22:47;3.13;;;2.10;;
70946;SDS011;58605;48.700;8.760;2022-11-22T14:25:23;1.63;;;1.53;;
70946;SDS011;58605;48.700;8.760;2022-11-22T14:28:09;4.33;;;1.70;;
70946;SDS011;58605;48.700;8.760;2022-11-22T14:30:48;2.97;;;1.77;;
70946;SDS011;58605;48.700;8.760;2022-11-22T14:33:18;2.30;;;1.53;;
70946;SDS011;58605;48.700;8.760;2022-11-22T14:38:40;2.83;;;1.57;;
70946;SDS011;58605;48.700;8.760;2022-11-22T14:44:09;4.37;;;1.70;;
70946;SDS011;58605;48.700;8.760;2022-11-22T14:46:42;2.80;;;2.30;;
70946;SDS011;58605;48.700;8.760;2022-11-22T14:49:14;4.23;;;1.60;;
70946;SDS011;58605;48.700;8.760;2022-11-22T14:51:43;2.50;;;1.60;;
70946;SDS011;58605;48.700;8.760;2022-11-22T14:54:18;5.20;;;2.30;;
70946;SDS011;58605;48.700;8.760;2022-11-22T14:56:47;1.70;;;1.60;;
70946;SDS011;58605;48.700;8.760;2022-11-22T14:59:22;1.87;;;1.50;;
70946;SDS011;58605;48.700;8.760;2022-11-22T15:02:14;3.10;;;1.70;;
70946;SDS011;58605;48.700;8.760;2022-11-22T15:04:55;2.87;;;1.50;;
70946;SDS011;58605;48.700;8.760;2022-11-22T15:07:34;3.77;;;1.80;;
70946;SDS011;58605;48.700;8.760;2022-11-22T15:10:18;1.83;;;1.60;;
70946;SDS011;58605;48.700;8.760;2022-11-22T15:15:46;2.17;;;1.87;;
70946;SDS011;58605;48.700;8.760;2022-11-22T15:18:15;2.77;;;1.70;;
70946;SDS011;58605;48.700;8.760;2022-11-22T15:20:42;4.63;;;1.90;;